Forty Two — WDD4780 — position and weather

sailwx.info

Track history (hours):
 
Tides and Currents Weather Stations Pressure Air Temp Water Temp Dewpoint Dewpoint Depression Visibility Wind Speed Wind Dir Waves Ship Positions

Forty Two

Owner: allen, christopher h, port angeles, WA. More information available from US FCC via Universal Licensing System and Coast Guard Vessel Documentation Center.

Last reported at 2017-Mar-27 23:33 UTC. Time now 2017-Mar-28 00:24 UTC.
Position N 29°49' W 092°08'.

Length 38 m.

Type: Passenger vessel. MMSI: 367455780.

Date/timePositionNaut miles runAvg speedWind from/ knotsBaromVisibWave heightAir tempDewpointWater temp
2017-Mar-27 23:33N 29°49' W 092°08'0 0.0
2017-Mar-27 22:33N 29°49' W 092°08'0 0.0
2017-Mar-27 21:33N 29°49' W 092°08'0 0.0
2017-Mar-27 20:33N 29°49' W 092°08'0 0.0
2017-Mar-27 19:33N 29°49' W 092°08'0 0.0
2017-Mar-27 18:33N 29°49' W 092°08'0 0.0
2017-Mar-27 17:33N 29°49' W 092°08'0 0.0
2017-Mar-27 16:33N 29°49' W 092°08'3 2.7
2017-Mar-27 15:33N 29°47' W 092°09'2 1.6
2017-Mar-27 14:33N 29°47' W 092°11'0 0.0
2017-Mar-27 13:33N 29°47' W 092°11'0 0.0
2017-Mar-27 12:33N 29°47' W 092°11'0 0.0
2017-Mar-27 11:33N 29°47' W 092°11'0 0.0
2017-Mar-27 10:33N 29°47' W 092°11'0 0.0
2017-Mar-27 04:33N 29°47' W 092°11'0 0.0
2017-Mar-27 03:33N 29°47' W 092°11'0 0.0
2017-Mar-27 02:33N 29°47' W 092°11'4 4.0
2017-Mar-27 01:33N 29°44' W 092°14'10 1.0
2017-Mar-26 15:32N 29°34' W 092°18'1515.2
2017-Mar-26 14:33N 29°47' W 092°10'3 3.0
2017-Mar-26 13:33N 29°49' W 092°08'0 0.0
2017-Mar-26 12:33N 29°49' W 092°08'0 0.0
2017-Mar-26 11:33N 29°49' W 092°08'0 0.0
2017-Mar-26 10:33N 29°49' W 092°08'0 0.0
2017-Mar-26 09:33N 29°49' W 092°08'0 0.0
2017-Mar-26 04:33N 29°49' W 092°08'0 0.0
2017-Mar-26 03:33N 29°49' W 092°08'0 0.0
2017-Mar-26 02:33N 29°49' W 092°08'0 0.0
2017-Mar-26 01:33N 29°49' W 092°08'0 0.0
2017-Mar-26 00:33N 29°49' W 092°08'0 0.0
2017-Mar-25 23:33N 29°49' W 092°08'0 0.0
2017-Mar-25 22:33N 29°49' W 092°08'0 0.0
2017-Mar-25 21:33N 29°49' W 092°08'0 0.0
2017-Mar-25 20:33N 29°49' W 092°08'0 0.0
2017-Mar-25 19:33N 29°49' W 092°08'0 0.0
2017-Mar-25 18:33N 29°49' W 092°08'0 0.0
2017-Mar-25 17:33N 29°49' W 092°08'0 0.0
2017-Mar-25 16:33N 29°49' W 092°08'0 0.0
2017-Mar-25 15:33N 29°49' W 092°08'0 0.0
2017-Mar-25 14:33N 29°49' W 092°08'0 0.0
2017-Mar-25 13:33N 29°49' W 092°08'0 0.0
2017-Mar-25 12:33N 29°49' W 092°08'0 0.0
2017-Mar-25 11:33N 29°49' W 092°08'0 0.0
2017-Mar-25 10:33N 29°49' W 092°08'0 0.0
2017-Mar-25 09:33N 29°49' W 092°08'0 0.0
2017-Mar-25 04:33N 29°49' W 092°08'0 0.0
2017-Mar-25 03:33N 29°49' W 092°08'0 0.0
2017-Mar-25 02:33N 29°49' W 092°08'0 0.0
2017-Mar-25 01:33N 29°49' W 092°08'0 0.0
2017-Mar-25 00:33N 29°49' W 092°08'0 0.0
2017-Mar-24 23:33N 29°49' W 092°08'0 0.0
2017-Mar-24 22:33N 29°49' W 092°08'0 0.0
2017-Mar-24 21:33N 29°49' W 092°08'0 0.0
2017-Mar-24 20:33N 29°49' W 092°08'0 0.0
2017-Mar-24 19:33N 29°49' W 092°08'0 0.0
2017-Mar-24 18:33N 29°49' W 092°08'0 0.0
2017-Mar-24 17:33N 29°49' W 092°08'0 0.0
2017-Mar-24 16:33N 29°49' W 092°08'0 0.0
2017-Mar-24 15:33N 29°49' W 092°08'0 0.0
2017-Mar-24 14:33N 29°49' W 092°08'0 0.0
2017-Mar-24 13:33N 29°49' W 092°08'0 0.0
2017-Mar-24 12:33N 29°49' W 092°08'4 3.8
2017-Mar-24 11:33N 29°47' W 092°11'0 0.0
2017-Mar-24 10:33N 29°47' W 092°11'0 0.0
2017-Mar-24 09:33N 29°47' W 092°11'0 0.0
2017-Mar-24 08:33N 29°47' W 092°11'0 0.0
2017-Mar-24 07:33N 29°47' W 092°11'6 6.0
2017-Mar-24 06:34N 29°42' W 092°15'25 2.3
2017-Mar-23 19:30N 29°18' W 092°24'1613.5
2017-Mar-23 18:17N 29°33' W 092°18'1014.3
2017-Mar-23 17:34N 29°43' W 092°15'5 4.8
2017-Mar-23 16:33N 29°47' W 092°11'0 0.0
2017-Mar-23 15:33N 29°47' W 092°11'2 2.5
2017-Mar-23 14:33N 29°48' W 092°08'2 1.9
2017-Mar-23 13:33N 29°49' W 092°08'0 0.0
2017-Mar-23 12:24N 29°49' W 092°08'0 0.0
2017-Mar-23 11:33N 29°49' W 092°08'0 0.0
2017-Mar-23 10:33N 29°49' W 092°08'0 0.0
2017-Mar-23 05:05N 29°49' W 092°08'0 0.0
2017-Mar-23 04:33N 29°49' W 092°08'0 0.0
2017-Mar-23 03:33N 29°49' W 092°08'0 0.0
2017-Mar-23 02:33N 29°49' W 092°08'0 0.0
2017-Mar-23 01:33N 29°49' W 092°08'0 0.0
2017-Mar-23 00:33N 29°49' W 092°08'0 0.0
2017-Mar-22 23:33N 29°49' W 092°08'0 0.0
2017-Mar-22 22:33N 29°49' W 092°08'0 0.0
2017-Mar-22 21:33N 29°49' W 092°08'0 0.0
2017-Mar-22 20:33N 29°49' W 092°08'0 0.0
2017-Mar-22 19:33N 29°49' W 092°08'0 0.0
2017-Mar-22 18:33N 29°49' W 092°08'0 0.0
2017-Mar-22 17:33N 29°49' W 092°08'0 0.0
2017-Mar-22 16:33N 29°49' W 092°08'0 0.0
2017-Mar-22 15:33N 29°49' W 092°08'3 2.7
2017-Mar-22 14:33N 29°47' W 092°09'1 0.6
2017-Mar-22 13:33N 29°47' W 092°09'2 2.2
2017-Mar-22 12:33N 29°47' W 092°11'0 0.1
2017-Mar-22 11:33N 29°47' W 092°11'0 0.0
2017-Mar-22 10:33N 29°47' W 092°11'0 0.0
2017-Mar-22 09:33N 29°47' W 092°11'0 0.0
2017-Mar-22 08:33N 29°47' W 092°11'0 0.0
2017-Mar-22 07:33N 29°47' W 092°11'0 0.0
2017-Mar-22 06:33N 29°47' W 092°11'0 0.0
2017-Mar-22 04:33N 29°47' W 092°11'0 0.0
2017-Mar-22 03:33N 29°47' W 092°11'0 0.0
2017-Mar-22 02:33N 29°47' W 092°11'1010.2
2017-Mar-22 01:33N 29°38' W 092°16'4 0.1
2017-Mar-20 16:33N 29°35' W 092°18'1414.3
2017-Mar-20 15:34N 29°47' W 092°10'1 0.6
2017-Mar-20 14:34N 29°47' W 092°09'0 0.0
2017-Mar-20 13:34N 29°47' W 092°09'0 0.0
2017-Mar-20 12:34N 29°47' W 092°09'0 0.4
2017-Mar-20 11:34N 29°47' W 092°10'1 1.2
2017-Mar-20 10:34N 29°47' W 092°11'0 0.0
2017-Mar-20 09:34N 29°47' W 092°11'0 0.0
2017-Mar-20 08:34N 29°47' W 092°11'0 0.0
2017-Mar-20 07:34N 29°47' W 092°11'0 0.0
2017-Mar-20 06:33N 29°47' W 092°11'0 0.0
2017-Mar-20 04:12N 29°47' W 092°11'711.2
2017-Mar-20 03:33N 29°41' W 092°15'4 0.5
2017-Mar-19 20:33N 29°37' W 092°17'1110.9
2017-Mar-19 19:33N 29°47' W 092°11'2 1.6
2017-Mar-19 18:34N 29°45' W 092°12'6 0.2
2017-Mar-18 05:34N 29°40' W 092°15'8 8.1
2017-Mar-18 04:33N 29°47' W 092°11'0 0.0
2017-Mar-18 03:20N 29°47' W 092°11'0 0.0
2017-Mar-18 02:34N 29°47' W 092°11'0 0.0
2017-Mar-18 01:34N 29°47' W 092°11'0 0.0
2017-Mar-18 00:34N 29°47' W 092°11'0 0.0
2017-Mar-17 23:34N 29°47' W 092°11'  
Track history (hours):
 
Tides and Currents Weather Stations Pressure Air Temp Water Temp Dewpoint Dewpoint Depression Visibility Wind Speed Wind Dir Waves Ship Positions

Forty Two

Owner: allen, christopher h, port angeles, WA. More information available from US FCC via Universal Licensing System and Coast Guard Vessel Documentation Center.

Last reported at 2017-Mar-27 23:33 UTC. Time now 2017-Mar-28 00:24 UTC.
Position N 29°49' W 092°08'.

Length 38 m.

Type: Passenger vessel. MMSI: 367455780.

Date/timePositionNaut miles runAvg speedWind from/ knotsBaromVisibWave heightAir tempDewpointWater temp
2017-Mar-27 23:33N 29°49' W 092°08'0 0.0
2017-Mar-27 22:33N 29°49' W 092°08'0 0.0
2017-Mar-27 21:33N 29°49' W 092°08'0 0.0
2017-Mar-27 20:33N 29°49' W 092°08'0 0.0
2017-Mar-27 19:33N 29°49' W 092°08'0 0.0
2017-Mar-27 18:33N 29°49' W 092°08'0 0.0
2017-Mar-27 17:33N 29°49' W 092°08'0 0.0
2017-Mar-27 16:33N 29°49' W 092°08'3 2.7
2017-Mar-27 15:33N 29°47' W 092°09'2 1.6
2017-Mar-27 14:33N 29°47' W 092°11'0 0.0
2017-Mar-27 13:33N 29°47' W 092°11'0 0.0
2017-Mar-27 12:33N 29°47' W 092°11'0 0.0
2017-Mar-27 11:33N 29°47' W 092°11'0 0.0
2017-Mar-27 10:33N 29°47' W 092°11'0 0.0
2017-Mar-27 04:33N 29°47' W 092°11'0 0.0
2017-Mar-27 03:33N 29°47' W 092°11'0 0.0
2017-Mar-27 02:33N 29°47' W 092°11'4 4.0
2017-Mar-27 01:33N 29°44' W 092°14'10 1.0
2017-Mar-26 15:32N 29°34' W 092°18'1515.2
2017-Mar-26 14:33N 29°47' W 092°10'3 3.0
2017-Mar-26 13:33N 29°49' W 092°08'0 0.0
2017-Mar-26 12:33N 29°49' W 092°08'0 0.0
2017-Mar-26 11:33N 29°49' W 092°08'0 0.0
2017-Mar-26 10:33N 29°49' W 092°08'0 0.0
2017-Mar-26 09:33N 29°49' W 092°08'0 0.0
2017-Mar-26 04:33N 29°49' W 092°08'0 0.0
2017-Mar-26 03:33N 29°49' W 092°08'0 0.0
2017-Mar-26 02:33N 29°49' W 092°08'0 0.0
2017-Mar-26 01:33N 29°49' W 092°08'0 0.0
2017-Mar-26 00:33N 29°49' W 092°08'0 0.0
2017-Mar-25 23:33N 29°49' W 092°08'0 0.0
2017-Mar-25 22:33N 29°49' W 092°08'0 0.0
2017-Mar-25 21:33N 29°49' W 092°08'0 0.0
2017-Mar-25 20:33N 29°49' W 092°08'0 0.0
2017-Mar-25 19:33N 29°49' W 092°08'0 0.0
2017-Mar-25 18:33N 29°49' W 092°08'0 0.0
2017-Mar-25 17:33N 29°49' W 092°08'0 0.0
2017-Mar-25 16:33N 29°49' W 092°08'0 0.0
2017-Mar-25 15:33N 29°49' W 092°08'0 0.0
2017-Mar-25 14:33N 29°49' W 092°08'0 0.0
2017-Mar-25 13:33N 29°49' W 092°08'0 0.0
2017-Mar-25 12:33N 29°49' W 092°08'0 0.0
2017-Mar-25 11:33N 29°49' W 092°08'0 0.0
2017-Mar-25 10:33N 29°49' W 092°08'0 0.0
2017-Mar-25 09:33N 29°49' W 092°08'0 0.0
2017-Mar-25 04:33N 29°49' W 092°08'0 0.0
2017-Mar-25 03:33N 29°49' W 092°08'0 0.0
2017-Mar-25 02:33N 29°49' W 092°08'0 0.0
2017-Mar-25 01:33N 29°49' W 092°08'0 0.0
2017-Mar-25 00:33N 29°49' W 092°08'0 0.0
2017-Mar-24 23:33N 29°49' W 092°08'0 0.0
2017-Mar-24 22:33N 29°49' W 092°08'0 0.0
2017-Mar-24 21:33N 29°49' W 092°08'0 0.0
2017-Mar-24 20:33N 29°49' W 092°08'0 0.0
2017-Mar-24 19:33N 29°49' W 092°08'0 0.0
2017-Mar-24 18:33N 29°49' W 092°08'0 0.0
2017-Mar-24 17:33N 29°49' W 092°08'0 0.0
2017-Mar-24 16:33N 29°49' W 092°08'0 0.0
2017-Mar-24 15:33N 29°49' W 092°08'0 0.0
2017-Mar-24 14:33N 29°49' W 092°08'0 0.0
2017-Mar-24 13:33N 29°49' W 092°08'0 0.0
2017-Mar-24 12:33N 29°49' W 092°08'4 3.8
2017-Mar-24 11:33N 29°47' W 092°11'0 0.0
2017-Mar-24 10:33N 29°47' W 092°11'0 0.0
2017-Mar-24 09:33N 29°47' W 092°11'0 0.0
2017-Mar-24 08:33N 29°47' W 092°11'0 0.0
2017-Mar-24 07:33N 29°47' W 092°11'6 6.0
2017-Mar-24 06:34N 29°42' W 092°15'25 2.3
2017-Mar-23 19:30N 29°18' W 092°24'1613.5
2017-Mar-23 18:17N 29°33' W 092°18'1014.3
2017-Mar-23 17:34N 29°43' W 092°15'5 4.8
2017-Mar-23 16:33N 29°47' W 092°11'0 0.0
2017-Mar-23 15:33N 29°47' W 092°11'2 2.5
2017-Mar-23 14:33N 29°48' W 092°08'2 1.9
2017-Mar-23 13:33N 29°49' W 092°08'0 0.0
2017-Mar-23 12:24N 29°49' W 092°08'0 0.0
2017-Mar-23 11:33N 29°49' W 092°08'0 0.0
2017-Mar-23 10:33N 29°49' W 092°08'0 0.0
2017-Mar-23 05:05N 29°49' W 092°08'0 0.0
2017-Mar-23 04:33N 29°49' W 092°08'0 0.0
2017-Mar-23 03:33N 29°49' W 092°08'0 0.0
2017-Mar-23 02:33N 29°49' W 092°08'0 0.0
2017-Mar-23 01:33N 29°49' W 092°08'0 0.0
2017-Mar-23 00:33N 29°49' W 092°08'0 0.0
2017-Mar-22 23:33N 29°49' W 092°08'0 0.0
2017-Mar-22 22:33N 29°49' W 092°08'0 0.0
2017-Mar-22 21:33N 29°49' W 092°08'0 0.0
2017-Mar-22 20:33N 29°49' W 092°08'0 0.0
2017-Mar-22 19:33N 29°49' W 092°08'0 0.0
2017-Mar-22 18:33N 29°49' W 092°08'0 0.0
2017-Mar-22 17:33N 29°49' W 092°08'0 0.0
2017-Mar-22 16:33N 29°49' W 092°08'0 0.0
2017-Mar-22 15:33N 29°49' W 092°08'3 2.7
2017-Mar-22 14:33N 29°47' W 092°09'1 0.6
2017-Mar-22 13:33N 29°47' W 092°09'2 2.2
2017-Mar-22 12:33N 29°47' W 092°11'0 0.1
2017-Mar-22 11:33N 29°47' W 092°11'0 0.0
2017-Mar-22 10:33N 29°47' W 092°11'0 0.0
2017-Mar-22 09:33N 29°47' W 092°11'0 0.0
2017-Mar-22 08:33N 29°47' W 092°11'0 0.0
2017-Mar-22 07:33N 29°47' W 092°11'0 0.0
2017-Mar-22 06:33N 29°47' W 092°11'0 0.0
2017-Mar-22 04:33N 29°47' W 092°11'0 0.0
2017-Mar-22 03:33N 29°47' W 092°11'0 0.0
2017-Mar-22 02:33N 29°47' W 092°11'1010.2
2017-Mar-22 01:33N 29°38' W 092°16'4 0.1
2017-Mar-20 16:33N 29°35' W 092°18'1414.3
2017-Mar-20 15:34N 29°47' W 092°10'1 0.6
2017-Mar-20 14:34N 29°47' W 092°09'0 0.0
2017-Mar-20 13:34N 29°47' W 092°09'0 0.0
2017-Mar-20 12:34N 29°47' W 092°09'0 0.4
2017-Mar-20 11:34N 29°47' W 092°10'1 1.2
2017-Mar-20 10:34N 29°47' W 092°11'0 0.0
2017-Mar-20 09:34N 29°47' W 092°11'0 0.0
2017-Mar-20 08:34N 29°47' W 092°11'0 0.0
2017-Mar-20 07:34N 29°47' W 092°11'0 0.0
2017-Mar-20 06:33N 29°47' W 092°11'0 0.0
2017-Mar-20 04:12N 29°47' W 092°11'711.2
2017-Mar-20 03:33N 29°41' W 092°15'4 0.5
2017-Mar-19 20:33N 29°37' W 092°17'1110.9
2017-Mar-19 19:33N 29°47' W 092°11'2 1.6
2017-Mar-19 18:34N 29°45' W 092°12'6 0.2
2017-Mar-18 05:34N 29°40' W 092°15'8 8.1
2017-Mar-18 04:33N 29°47' W 092°11'0 0.0
2017-Mar-18 03:20N 29°47' W 092°11'0 0.0
2017-Mar-18 02:34N 29°47' W 092°11'0 0.0
2017-Mar-18 01:34N 29°47' W 092°11'0 0.0
2017-Mar-18 00:34N 29°47' W 092°11'0 0.0
2017-Mar-17 23:34N 29°47' W 092°11'  

Dump ship's entire track history